Time;durP1;ratioP1;P1;durP2;ratioP2;P2;SDS_P1;SDS_P2;PMS_P1;PMS_P2;Temp;Humidity;BMP_temperature;BMP_pressure;BME280_temperature;BME280_humidity;BME280_pressure;Samples;Min_cycle;Max_cycle;Signal;HPM_P1;HPM_P2
2022/12/24 00:01:52;;;;;;;12.27;6.70;;;5.80;99.90;;;;;;7407488;19;19922;-67
2022/12/24 00:04:21;;;;;;;13.40;6.80;;;6.40;99.90;;;;;;7406879;19;19986;-67
2022/12/24 00:06:50;;;;;;;11.27;6.30;;;5.60;99.90;;;;;;7410052;19;20274;-67
2022/12/24 00:09:19;;;;;;;14.40;6.93;;;5.70;99.90;;;;;;7407108;19;19919;-68
2022/12/24 00:11:50;;;;;;;10.57;5.82;;;5.80;99.90;;;;;;7407376;19;20383;-67
2022/12/24 00:14:19;;;;;;;11.93;6.85;;;5.70;99.90;;;;;;7406407;19;19915;-68
2022/12/24 00:16:49;;;;;;;11.32;6.65;;;5.80;99.90;;;;;;7407234;19;19921;-67
2022/12/24 00:19:18;;;;;;;11.63;5.85;;;5.80;99.90;;;;;;7407373;19;20268;-67
2022/12/24 00:21:47;;;;;;;12.77;6.60;;;5.70;99.90;;;;;;7407044;19;19925;-67
2022/12/24 00:24:16;;;;;;;10.65;5.88;;;5.80;99.90;;;;;;7406854;19;20424;-67
2022/12/24 00:26:45;;;;;;;11.73;6.63;;;5.90;99.90;;;;;;7407224;19;20253;-67
2022/12/24 00:29:17;;;;;;;12.30;5.88;;;5.80;99.90;;;;;;7406986;19;19922;-67
2022/12/24 00:31:46;;;;;;;11.30;6.18;;;5.80;99.90;;;;;;7404799;19;19932;-67
2022/12/24 00:34:19;;;;;;;12.35;7.28;;;5.80;99.90;;;;;;7405579;19;19918;-67
2022/12/24 00:36:53;;;;;;;11.90;6.07;;;5.70;99.90;;;;;;7406786;19;20041;-67
2022/12/24 00:39:22;;;;;;;10.13;6.30;;;5.80;99.90;;;;;;7405768;19;19923;-67
2022/12/24 00:41:53;;;;;;;10.07;5.93;;;5.80;99.90;;;;;;7405896;19;19926;-67
2022/12/24 00:44:25;;;;;;;9.40;5.43;;;5.70;99.90;;;;;;7406474;19;20354;-67
2022/12/24 00:46:54;;;;;;;9.88;5.60;;;5.70;99.90;;;;;;7405852;19;19915;-68
2022/12/24 00:49:24;;;;;;;11.68;6.32;;;5.70;99.90;;;;;;7406352;19;19932;-67
2022/12/24 00:51:53;;;;;;;9.45;5.80;;;5.80;99.90;;;;;;7405985;19;19986;-67
2022/12/24 00:54:23;;;;;;;10.40;5.40;;;5.80;99.90;;;;;;7404477;19;20268;-67
2022/12/24 00:56:51;;;;;;;9.95;5.55;;;6.00;99.90;;;;;;7405997;19;19921;-67
2022/12/24 00:59:20;;;;;;;10.50;6.40;;;7.00;99.90;;;;;;7405934;19;19911;-67
2022/12/24 01:01:52;;;;;;;10.90;6.32;;;5.80;99.90;;;;;;7405573;19;19935;-67
2022/12/24 01:07:03;;;;;;;9.80;5.50;;;5.80;99.90;;;;;;7406076;19;19938;-66
2022/12/24 01:09:32;;;;;;;12.60;6.32;;;5.80;99.90;;;;;;7405663;19;20345;-67
2022/12/24 01:12:04;;;;;;;10.32;6.05;;;5.80;99.90;;;;;;7405243;19;19919;-67
2022/12/24 01:14:35;;;;;;;13.25;6.32;;;5.80;99.90;;;;;;7405618;19;19915;-67
2022/12/24 01:17:07;;;;;;;12.75;5.93;;;5.80;99.90;;;;;;7405783;19;19919;-67
2022/12/24 01:19:36;;;;;;;11.77;6.50;;;5.80;99.90;;;;;;7405490;19;19971;-68
2022/12/24 01:22:05;;;;;;;10.65;5.97;;;5.80;99.90;;;;;;7405144;19;19929;-68
2022/12/24 01:24:34;;;;;;;11.30;6.20;;;5.90;99.90;;;;;;7405564;19;19925;-67
2022/12/24 01:27:03;;;;;;;11.13;6.53;;;5.80;99.90;;;;;;7405632;19;19925;-67
2022/12/24 01:29:32;;;;;;;10.45;5.57;;;5.80;99.90;;;;;;7405349;19;19919;-67
2022/12/24 01:32:01;;;;;;;11.77;6.97;;;5.80;99.90;;;;;;7405092;19;19966;-68
2022/12/24 01:34:34;;;;;;;9.10;5.53;;;5.70;99.90;;;;;;7405635;19;19918;-67
2022/12/24 01:37:08;;;;;;;12.20;6.40;;;5.70;99.90;;;;;;7404852;19;19952;-68
2022/12/24 01:39:37;;;;;;;9.38;6.00;;;5.90;99.90;;;;;;7403896;19;19922;-68
2022/12/24 01:45:40;;;;;;;9.73;5.88;;;5.80;99.90;;;;;;7402831;19;19918;-67
2022/12/24 01:48:27;;;;;;;10.50;6.07;;;5.70;99.90;;;;;;7405647;19;19922;-67
2022/12/24 01:51:04;;;;;;;10.43;6.45;;;5.60;99.90;;;;;;7404506;19;19950;-67
2022/12/24 01:53:36;;;;;;;11.80;5.80;;;5.70;99.90;;;;;;7404736;19;19923;-67
2022/12/24 01:56:07;;;;;;;10.73;5.93;;;5.80;99.90;;;;;;7403629;19;19922;-67
2022/12/24 01:58:38;;;;;;;10.77;5.65;;;5.80;99.90;;;;;;7405135;19;19915;-67
2022/12/24 02:01:09;;;;;;;9.88;5.65;;;5.90;99.90;;;;;;7404460;19;20336;-68
2022/12/24 02:03:38;;;;;;;10.32;6.07;;;5.70;99.90;;;;;;7406127;19;19942;-67
2022/12/24 02:06:11;;;;;;;14.52;7.35;;;5.80;99.90;;;;;;7405165;19;19915;-67
2022/12/24 02:08:43;;;;;;;11.95;6.50;;;5.80;99.90;;;;;;7405114;19;19921;-67
2022/12/24 02:11:14;;;;;;;10.27;5.32;;;5.80;99.90;;;;;;7404887;19;20265;-67
2022/12/24 02:13:45;;;;;;;13.18;6.80;;;5.70;99.90;;;;;;7405079;19;19990;-67
2022/12/24 02:16:27;;;;;;;11.93;6.55;;;5.70;99.90;;;;;;7402745;19;19926;-67
2022/12/24 02:19:05;;;;;;;10.80;6.30;;;5.60;99.90;;;;;;7404409;19;19926;-67
2022/12/24 02:21:53;;;;;;;12.40;7.00;;;5.90;99.90;;;;;;7403910;19;19978;-67
2022/12/24 02:24:49;;;;;;;12.05;7.18;;;5.80;99.90;;;;;;7403583;19;19914;-67
2022/12/24 02:27:33;;;;;;;13.32;7.28;;;5.90;99.90;;;;;;7403185;19;20354;-66
2022/12/24 02:30:09;;;;;;;11.18;6.25;;;5.60;99.90;;;;;;7403903;19;20384;-68
2022/12/24 02:32:59;;;;;;;12.88;7.10;;;5.70;99.90;;;;;;7402992;19;19931;-68
2022/12/24 02:35:37;;;;;;;11.20;6.38;;;3.80;99.90;;;;;;7402743;19;19926;-67
2022/12/24 02:38:15;;;;;;;11.65;6.68;;;5.80;99.90;;;;;;7403198;19;19921;-67
2022/12/24 02:40:49;;;;;;;11.75;7.13;;;5.80;99.90;;;;;;7403743;19;19938;-68
2022/12/24 02:43:23;;;;;;;12.63;7.50;;;5.80;99.90;;;;;;7401125;19;19939;-67
2022/12/24 02:45:59;;;;;;;10.98;5.93;;;5.60;99.90;;;;;;7403604;19;19918;-67
2022/12/24 02:48:30;;;;;;;10.50;6.32;;;5.70;99.90;;;;;;7403009;19;20372;-67
2022/12/24 02:51:06;;;;;;;11.68;6.88;;;5.70;99.90;;;;;;7403221;19;19915;-68
2022/12/24 02:53:37;;;;;;;11.00;6.88;;;5.70;99.90;;;;;;7404192;19;19919;-67
2022/12/24 02:56:24;;;;;;;11.60;6.63;;;5.60;99.90;;;;;;7407608;19;20449;-67
2022/12/24 02:59:10;;;;;;;12.57;7.35;;;5.70;99.90;;;;;;7409128;19;20487;-68
2022/12/24 03:01:52;;;;;;;11.25;6.57;;;5.60;99.90;;;;;;7409424;19;20243;-67
2022/12/24 03:04:43;;;;;;;12.23;8.00;;;5.70;99.90;;;;;;7410931;19;19989;-67
2022/12/24 03:07:19;;;;;;;12.95;7.38;;;6.30;99.90;;;;;;7409097;19;20324;-67
2022/12/24 03:10:03;;;;;;;12.85;7.13;;;5.60;99.90;;;;;;7408947;19;20340;-67
2022/12/24 03:12:36;;;;;;;12.57;7.30;;;5.70;99.90;;;;;;7409054;19;19918;-67
2022/12/24 03:15:08;;;;;;;12.95;7.28;;;5.80;99.90;;;;;;7408025;19;20285;-66
2022/12/24 03:17:43;;;;;;;11.30;6.90;;;5.70;99.90;;;;;;7409304;19;19915;-67
2022/12/24 03:20:16;;;;;;;11.73;6.72;;;5.70;99.90;;;;;;7408971;19;20245;-67
2022/12/24 03:22:45;;;;;;;12.20;6.65;;;5.70;99.90;;;;;;7409309;19;19911;-67
2022/12/24 03:25:15;;;;;;;12.95;7.07;;;5.90;99.90;;;;;;7408469;19;19915;-68
2022/12/24 03:27:45;;;;;;;12.38;7.28;;;5.70;99.90;;;;;;7406919;19;20264;-68
2022/12/24 03:30:17;;;;;;;18.13;8.25;;;5.70;99.90;;;;;;7408477;19;19958;-67
2022/12/24 03:32:49;;;;;;;12.13;7.40;;;5.70;99.90;;;;;;7411568;19;20249;-68
2022/12/24 03:35:18;;;;;;;15.68;8.02;;;5.60;99.90;;;;;;7407589;19;19918;-66
2022/12/24 03:37:47;;;;;;;16.55;9.32;;;5.60;99.90;;;;;;7408348;19;19999;-67
2022/12/24 03:40:16;;;;;;;16.23;7.43;;;5.70;99.90;;;;;;7406388;19;19922;-68
2022/12/24 03:42:45;;;;;;;16.90;8.65;;;5.60;99.90;;;;;;7406647;19;19948;-67
2022/12/24 03:45:14;;;;;;;18.33;9.43;;;4.70;99.90;;;;;;7408120;19;19914;-67
2022/12/24 03:47:44;;;;;;;20.20;9.60;;;5.80;99.90;;;;;;7407767;19;20280;-67
2022/12/24 03:50:15;;;;;;;21.13;10.95;;;5.90;99.90;;;;;;7407873;19;19921;-67
2022/12/24 03:52:44;;;;;;;23.20;11.25;;;5.80;99.90;;;;;;7407963;19;19979;-67
2022/12/24 03:55:13;;;;;;;24.13;9.55;;;5.80;99.90;;;;;;7407924;19;20412;-67
2022/12/24 03:57:43;;;;;;;21.33;10.27;;;5.90;99.90;;;;;;7407626;19;19918;-67
2022/12/24 04:00:13;;;;;;;22.08;9.25;;;6.00;99.90;;;;;;7407725;19;19927;-67
2022/12/24 04:02:43;;;;;;;19.92;8.15;;;5.90;99.90;;;;;;7409285;19;19923;-67
2022/12/24 04:05:19;;;;;;;18.92;8.60;;;6.60;99.90;;;;;;7405481;19;19911;-67
2022/12/24 04:07:48;;;;;;;18.90;8.15;;;6.10;99.90;;;;;;7407307;19;19915;-67
2022/12/24 04:10:18;;;;;;;17.23;7.18;;;6.10;99.90;;;;;;7407763;19;19911;-67
2022/12/24 04:12:47;;;;;;;11.07;5.55;;;6.10;99.90;;;;;;7407603;19;20190;-67
2022/12/24 04:15:16;;;;;;;11.85;6.05;;;6.20;99.90;;;;;;7406916;19;19979;-67
2022/12/24 04:17:45;;;;;;;15.57;6.95;;;6.60;99.90;;;;;;7407513;19;19911;-66
2022/12/24 04:20:17;;;;;;;13.40;6.63;;;6.30;99.90;;;;;;7408053;19;19915;-67
2022/12/24 04:22:46;;;;;;;10.77;5.75;;;6.30;99.90;;;;;;7407452;19;20333;-67
2022/12/24 04:25:15;;;;;;;14.52;7.07;;;6.50;99.90;;;;;;7406865;19;19942;-66
2022/12/24 04:27:44;;;;;;;11.50;5.20;;;6.50;99.90;;;;;;7407224;19;19918;-66
2022/12/24 04:30:14;;;;;;;12.02;5.55;;;6.40;99.90;;;;;;7406898;19;19918;-67
2022/12/24 04:32:43;;;;;;;12.38;5.40;;;6.50;99.90;;;;;;7410868;19;20333;-66
2022/12/24 04:35:12;;;;;;;9.80;5.13;;;6.50;99.90;;;;;;7406581;19;19950;-65
2022/12/24 04:37:44;;;;;;;11.73;4.93;;;6.60;99.90;;;;;;7407050;19;20339;-67
2022/12/24 04:40:13;;;;;;;13.52;5.13;;;6.60;99.90;;;;;;7404811;19;19919;-66
2022/12/24 04:42:42;;;;;;;12.27;5.22;;;6.60;99.90;;;;;;7404960;19;19917;-66
2022/12/24 04:45:12;;;;;;;9.20;4.43;;;6.80;99.90;;;;;;7406830;19;19919;-66
2022/12/24 04:47:41;;;;;;;8.90;4.60;;;6.80;99.90;;;;;;7406249;19;19918;-67
2022/12/24 04:50:13;;;;;;;8.68;4.03;;;6.80;99.90;;;;;;7406154;19;19919;-66
2022/12/24 04:52:45;;;;;;;15.05;5.03;;;6.70;99.90;;;;;;7406086;19;19921;-66
2022/12/24 04:55:14;;;;;;;7.88;4.07;;;6.80;99.90;;;;;;7406369;19;19911;-67
2022/12/24 04:57:43;;;;;;;10.23;4.65;;;6.80;99.90;;;;;;7406097;19;19923;-66
2022/12/24 05:00:14;;;;;;;9.73;4.57;;;6.80;99.90;;;;;;7404836;19;19919;-67
2022/12/24 05:02:44;;;;;;;14.77;5.10;;;6.80;99.90;;;;;;7409871;19;19919;-66
2022/12/24 05:05:13;;;;;;;18.10;5.10;;;6.80;99.90;;;;;;7406247;19;19921;-66
2022/12/24 05:07:44;;;;;;;14.65;4.00;;;6.70;99.90;;;;;;7404561;19;19918;-66
2022/12/24 05:10:13;;;;;;;24.38;5.20;;;6.90;99.90;;;;;;7406342;19;19974;-66
2022/12/24 05:12:44;;;;;;;22.10;3.90;;;6.90;99.90;;;;;;7405637;19;19954;-66
2022/12/24 05:15:13;;;;;;;21.17;4.32;;;7.40;99.90;;;;;;7405960;19;19910;-66
2022/12/24 05:17:42;;;;;;;17.73;3.10;;;6.90;99.90;;;;;;7402366;19;20007;-65
2022/12/24 05:20:19;;;;;;;11.80;2.67;;;6.90;99.90;;;;;;7405908;19;19914;-66
2022/12/24 05:28:18;;;;;;;22.05;3.22;;;6.90;99.90;;;;;;7405278;19;20340;-65
2022/12/24 05:30:47;;;;;;;15.95;2.70;;;6.90;99.90;;;;;;7407533;19;19926;-65
2022/12/24 05:33:16;;;;;;;10.75;2.40;;;7.00;99.90;;;;;;7404943;19;19919;-66
2022/12/24 05:35:46;;;;;;;17.45;2.78;;;7.00;99.90;;;;;;7405298;19;19919;-65
2022/12/24 05:38:17;;;;;;;22.48;2.80;;;6.90;99.90;;;;;;7405057;19;20005;-66
2022/12/24 05:40:47;;;;;;;21.70;2.85;;;7.00;99.90;;;;;;7404926;19;19919;-66
2022/12/24 05:43:16;;;;;;;15.27;2.47;;;7.00;99.90;;;;;;7403096;19;19921;-66
2022/12/24 05:45:45;;;;;;;28.10;3.95;;;6.90;99.90;;;;;;7404791;19;19922;-66
2022/12/24 05:48:15;;;;;;;15.85;2.50;;;6.90;99.90;;;;;;7404769;19;20272;-66
2022/12/24 05:50:44;;;;;;;19.42;2.92;;;6.90;99.90;;;;;;7405076;19;19935;-66
2022/12/24 05:53:13;;;;;;;16.52;2.65;;;6.90;99.90;;;;;;7404620;19;19982;-66
2022/12/24 05:55:45;;;;;;;21.02;3.13;;;7.00;99.90;;;;;;7404055;19;19924;-66
2022/12/24 05:58:15;;;;;;;22.38;3.28;;;6.90;99.90;;;;;;7404831;19;19931;-66
2022/12/24 06:00:45;;;;;;;22.08;3.67;;;7.00;99.90;;;;;;7407605;19;20240;-65
2022/12/24 06:03:14;;;;;;;23.27;3.75;;;6.90;99.90;;;;;;7404045;19;19923;-66
2022/12/24 06:05:43;;;;;;;27.20;3.17;;;6.90;99.90;;;;;;7403821;19;20230;-66
2022/12/24 06:08:12;;;;;;;21.77;4.10;;;7.00;99.90;;;;;;7404137;19;19917;-65
2022/12/24 06:10:44;;;;;;;20.50;3.33;;;6.90;99.90;;;;;;7404197;19;19910;-65
2022/12/24 06:13:16;;;;;;;18.35;2.67;;;6.90;99.90;;;;;;7404271;19;20341;-66
2022/12/24 06:15:45;;;;;;;19.98;3.55;;;6.90;99.90;;;;;;7404034;19;20293;-66
2022/12/24 06:18:14;;;;;;;15.32;2.92;;;6.90;99.90;;;;;;7403942;19;19922;-65
2022/12/24 06:20:43;;;;;;;27.83;3.65;;;7.00;99.90;;;;;;7404291;19;19921;-66
2022/12/24 06:23:12;;;;;;;17.80;3.38;;;6.90;99.90;;;;;;7403841;19;19986;-66
2022/12/24 06:25:43;;;;;;;12.70;2.58;;;6.90;99.90;;;;;;7403853;19;20243;-66
2022/12/24 06:28:12;;;;;;;21.13;3.30;;;6.90;99.90;;;;;;7401569;19;19922;-66
2022/12/24 06:30:42;;;;;;;31.85;4.20;;;7.00;99.90;;;;;;7408133;19;20752;-66
2022/12/24 06:33:11;;;;;;;23.45;4.05;;;6.90;99.90;;;;;;7403393;19;19978;-66
2022/12/24 06:35:47;;;;;;;24.00;3.38;;;7.00;99.90;;;;;;7403235;19;19925;-65
2022/12/24 06:38:17;;;;;;;20.23;3.88;;;6.90;99.90;;;;;;7402958;19;19926;-66
2022/12/24 06:40:49;;;;;;;23.05;3.20;;;7.00;99.90;;;;;;7406764;19;19918;-66
2022/12/24 06:43:19;;;;;;;29.50;3.97;;;6.90;99.90;;;;;;7400994;19;20559;-66
2022/12/24 06:45:49;;;;;;;29.60;3.65;;;7.00;99.90;;;;;;7403180;19;19918;-65
2022/12/24 06:48:18;;;;;;;20.20;4.38;;;7.00;99.90;;;;;;7403101;19;19927;-66
2022/12/24 06:50:49;;;;;;;31.23;6.35;;;7.00;99.90;;;;;;7403139;19;20288;-66
2022/12/24 06:53:18;;;;;;;25.33;6.28;;;6.90;99.90;;;;;;7402621;19;19918;-65
2022/12/24 06:55:50;;;;;;;34.05;5.75;;;7.00;99.90;;;;;;7402617;19;19939;-66
2022/12/24 06:58:20;;;;;;;26.85;6.32;;;7.00;99.90;;;;;;7402335;19;19925;-66
2022/12/24 07:00:50;;;;;;;24.13;3.22;;;7.00;99.90;;;;;;7402326;19;20347;-67
2022/12/24 07:03:19;;;;;;;22.65;3.92;;;7.00;99.90;;;;;;7401935;19;20333;-67
2022/12/24 07:05:48;;;;;;;27.08;4.38;;;7.00;99.90;;;;;;7402188;19;19918;-67
2022/12/24 07:08:17;;;;;;;24.88;4.18;;;7.00;99.90;;;;;;7402151;19;20261;-67
2022/12/24 07:10:46;;;;;;;17.70;3.25;;;7.00;99.90;;;;;;7402535;19;19921;-66
2022/12/24 07:13:18;;;;;;;26.10;4.75;;;7.10;99.90;;;;;;7402610;19;20007;-67
2022/12/24 07:15:48;;;;;;;20.80;3.10;;;7.00;99.90;;;;;;7401675;19;20254;-66
2022/12/24 07:18:17;;;;;;;23.98;3.70;;;7.00;99.90;;;;;;7401080;19;19927;-66
2022/12/24 07:20:50;;;;;;;20.08;3.33;;;7.10;99.90;;;;;;7402180;19;19919;-65
2022/12/24 07:23:19;;;;;;;22.52;3.03;;;7.10;99.90;;;;;;7401913;19;19923;-66
2022/12/24 07:25:48;;;;;;;30.08;4.75;;;6.90;99.90;;;;;;7401695;19;20332;-66
2022/12/24 07:28:20;;;;;;;27.73;4.07;;;7.00;99.90;;;;;;7404284;19;19933;-66
2022/12/24 07:30:52;;;;;;;20.23;4.55;;;7.10;99.90;;;;;;7401436;19;19919;-66
2022/12/24 07:33:21;;;;;;;25.48;4.07;;;7.10;99.90;;;;;;7401875;19;19935;-66
2022/12/24 07:35:50;;;;;;;28.42;4.63;;;7.20;99.90;;;;;;7401576;19;19926;-66
2022/12/24 07:38:19;;;;;;;19.00;4.50;;;7.10;99.90;;;;;;7397549;19;19914;-65
2022/12/24 07:40:49;;;;;;;25.20;4.78;;;7.10;99.90;;;;;;7406033;19;19974;-65
2022/12/24 07:43:20;;;;;;;26.40;4.70;;;7.10;99.90;;;;;;7405507;19;19915;-66
2022/12/24 07:45:49;;;;;;;24.83;4.18;;;7.20;99.90;;;;;;7407901;19;19924;-66
2022/12/24 07:48:18;;;;;;;16.05;3.08;;;7.10;99.90;;;;;;7407868;19;19915;-65
2022/12/24 07:50:47;;;;;;;19.10;3.22;;;7.10;99.90;;;;;;7408400;19;19919;-66
2022/12/24 07:53:16;;;;;;;19.50;3.00;;;7.30;99.90;;;;;;7407956;19;19934;-65
2022/12/24 07:55:46;;;;;;;15.75;3.83;;;7.10;99.90;;;;;;7407527;19;19923;-66
2022/12/24 07:58:15;;;;;;;23.92;3.60;;;7.00;99.90;;;;;;7405418;19;19943;-65
2022/12/24 08:00:56;;;;;;;23.20;4.35;;;7.10;99.90;;;;;;7407464;19;19922;-67
2022/12/24 08:03:25;;;;;;;22.55;3.63;;;7.20;99.90;;;;;;7406988;19;19915;-65
2022/12/24 08:05:57;;;;;;;30.33;3.50;;;7.20;99.90;;;;;;7407161;19;19926;-66
2022/12/24 08:08:27;;;;;;;22.00;4.22;;;7.10;99.90;;;;;;7407994;19;19943;-65
2022/12/24 08:11:03;;;;;;;20.38;3.35;;;7.30;99.90;;;;;;7406826;19;20546;-66
2022/12/24 08:13:34;;;;;;;20.95;3.53;;;7.10;99.90;;;;;;7407435;19;19978;-66
2022/12/24 08:16:06;;;;;;;23.92;3.60;;;7.20;99.90;;;;;;7407563;19;19970;-65
2022/12/24 08:18:35;;;;;;;27.42;4.25;;;7.00;99.90;;;;;;7404756;19;19974;-66
2022/12/24 08:21:04;;;;;;;22.05;3.65;;;7.20;99.90;;;;;;7406857;19;20374;-67
2022/12/24 08:23:33;;;;;;;24.42;4.82;;;7.10;99.90;;;;;;7406630;19;19916;-66
2022/12/24 08:26:02;;;;;;;23.60;4.20;;;7.10;99.90;;;;;;7407519;19;19919;-66
2022/12/24 08:28:31;;;;;;;24.42;4.80;;;7.10;99.90;;;;;;7406511;19;19986;-66
2022/12/24 08:31:01;;;;;;;28.30;5.20;;;7.10;99.90;;;;;;7406386;19;19919;-66
2022/12/24 08:33:33;;;;;;;26.63;4.97;;;7.00;99.90;;;;;;7406240;19;19910;-66
2022/12/24 08:36:03;;;;;;;19.17;5.38;;;7.10;99.90;;;;;;7406188;19;20350;-65
2022/12/24 08:38:32;;;;;;;18.35;4.45;;;7.00;99.90;;;;;;7404098;19;19974;-66
2022/12/24 08:41:01;;;;;;;21.92;4.90;;;7.00;99.90;;;;;;7406541;19;19911;-66
2022/12/24 08:43:31;;;;;;;24.05;4.15;;;7.00;99.90;;;;;;7404312;19;20257;-66
2022/12/24 08:46:04;;;;;;;24.05;4.70;;;7.10;99.90;;;;;;7405912;19;19918;-66
2022/12/24 08:48:48;;;;;;;26.75;4.32;;;7.00;99.90;;;;;;7406363;19;19922;-66
2022/12/24 08:51:18;;;;;;;21.33;4.50;;;7.00;99.90;;;;;;7405072;19;19950;-66
2022/12/24 08:53:47;;;;;;;20.60;3.97;;;7.10;99.90;;;;;;7405992;19;20301;-65
2022/12/24 08:56:16;;;;;;;21.38;4.60;;;7.10;99.90;;;;;;7406161;19;19914;-66
2022/12/24 08:58:47;;;;;;;25.77;4.88;;;7.20;99.90;;;;;;7407899;19;19918;-66
2022/12/24 09:01:19;;;;;;;23.52;4.25;;;7.20;99.90;;;;;;7405595;19;19938;-66
2022/12/24 09:03:51;;;;;;;16.83;4.93;;;7.20;99.90;;;;;;7405081;19;19914;-65
2022/12/24 09:06:20;;;;;;;24.98;4.43;;;7.20;99.90;;;;;;7405554;19;19919;-65
2022/12/24 09:08:49;;;;;;;29.85;5.70;;;7.30;99.90;;;;;;7405042;19;19982;-65
2022/12/24 09:11:21;;;;;;;23.13;4.13;;;7.40;99.90;;;;;;7405583;19;19938;-65
2022/12/24 09:13:50;;;;;;;35.75;6.30;;;7.40;99.90;;;;;;7406376;19;19922;-66
2022/12/24 09:16:19;;;;;;;27.50;6.20;;;7.50;99.90;;;;;;7405480;19;20347;-65
2022/12/24 09:18:51;;;;;;;29.80;6.28;;;7.40;99.90;;;;;;7403593;19;20206;-65
2022/12/24 09:21:20;;;;;;;22.75;6.03;;;7.50;99.90;;;;;;7404679;19;20335;-65
2022/12/24 09:23:50;;;;;;;25.02;6.40;;;7.50;99.90;;;;;;7405388;19;19926;-65
2022/12/24 09:26:25;;;;;;;28.05;6.95;;;7.60;99.90;;;;;;7405613;19;19921;-65
2022/12/24 09:28:55;;;;;;;27.48;6.57;;;7.60;99.90;;;;;;7405458;19;20713;-65
2022/12/24 09:31:31;;;;;;;24.92;6.80;;;7.60;99.90;;;;;;7405213;19;19953;-65
2022/12/24 09:34:03;;;;;;;27.98;5.88;;;7.60;99.90;;;;;;7404445;19;19914;-65
2022/12/24 09:36:32;;;;;;;27.23;5.97;;;7.60;99.90;;;;;;7405173;19;19918;-65
2022/12/24 09:39:02;;;;;;;19.33;4.90;;;7.60;99.90;;;;;;7403187;19;19918;-66
2022/12/24 09:41:43;;;;;;;20.25;4.82;;;7.70;99.90;;;;;;7404190;19;19948;-65
2022/12/24 09:44:26;;;;;;;29.05;5.43;;;7.60;99.90;;;;;;7404794;19;19928;-66
2022/12/24 09:46:56;;;;;;;28.08;4.53;;;7.60;99.90;;;;;;7404705;19;19970;-66
2022/12/24 09:49:39;;;;;;;20.77;4.57;;;7.70;99.90;;;;;;7404816;19;19921;-66
2022/12/24 09:52:12;;;;;;;21.55;4.03;;;7.80;99.90;;;;;;7404320;19;19978;-66
2022/12/24 09:54:43;;;;;;;;;;;7.90;99.90;;;;;;7406553;19;19929;-66
2022/12/24 09:57:18;;;;;;;16.95;3.45;;;8.00;99.90;;;;;;7407892;19;20276;-65
2022/12/24 09:59:48;;;;;;;22.88;3.90;;;7.90;99.90;;;;;;7403939;19;20002;-66
2022/12/24 10:02:23;;;;;;;18.58;3.67;;;8.10;99.90;;;;;;7404156;19;19974;-65
2022/12/24 10:04:57;;;;;;;21.40;3.17;;;8.00;99.90;;;;;;7403646;19;20325;-66
2022/12/24 10:07:38;;;;;;;20.20;3.95;;;7.90;99.90;;;;;;7403688;19;19982;-66
2022/12/24 10:10:19;;;;;;;22.92;3.88;;;7.90;99.90;;;;;;7403922;19;19911;-65
2022/12/24 10:12:59;;;;;;;22.60;4.40;;;7.90;99.90;;;;;;7403310;19;20262;-65
2022/12/24 10:15:35;;;;;;;25.40;5.65;;;8.00;99.90;;;;;;7403591;19;19922;-66
2022/12/24 10:18:21;;;;;;;23.98;6.90;;;7.90;99.90;;;;;;7402959;19;19919;-66
2022/12/24 10:21:09;;;;;;;22.60;6.28;;;8.00;99.90;;;;;;7404365;19;20372;-66
2022/12/24 10:23:43;;;;;;;43.35;6.68;;;8.00;99.90;;;;;;7403802;19;19919;-65
2022/12/24 10:26:18;;;;;;;27.02;5.85;;;8.00;99.90;;;;;;7406062;19;19925;-65
2022/12/24 10:28:52;;;;;;;27.25;6.35;;;8.00;99.90;;;;;;7403851;19;19918;-65
2022/12/24 10:31:25;;;;;;;21.98;5.15;;;7.90;99.90;;;;;;7403241;19;19925;-66
2022/12/24 10:33:59;;;;;;;18.58;5.30;;;8.00;99.90;;;;;;7403055;19;19931;-65
2022/12/24 10:36:33;;;;;;;22.95;6.53;;;7.90;99.90;;;;;;7402892;19;19915;-66
2022/12/24 10:39:05;;;;;;;28.10;5.82;;;8.10;99.90;;;;;;7401744;19;20018;-65
2022/12/24 10:41:37;;;;;;;29.73;6.28;;;8.10;99.90;;;;;;7402711;19;19942;-66
2022/12/24 10:44:07;;;;;;;24.85;5.60;;;8.10;99.90;;;;;;7402871;19;20263;-65
2022/12/24 10:46:40;;;;;;;20.35;4.30;;;8.20;99.90;;;;;;7403483;19;19922;-65
2022/12/24 10:49:16;;;;;;;16.13;3.08;;;8.10;99.90;;;;;;7403013;19;19915;-65
2022/12/24 10:51:52;;;;;;;18.60;4.07;;;8.20;99.90;;;;;;7403020;19;19922;-66
2022/12/24 10:54:23;;;;;;;20.88;4.00;;;8.20;99.90;;;;;;7402531;19;20328;-66
2022/12/24 10:56:57;;;;;;;22.45;4.80;;;8.20;99.90;;;;;;7405652;19;20317;-65
2022/12/24 10:59:29;;;;;;;19.92;4.22;;;8.30;99.90;;;;;;7401062;19;19925;-66
2022/12/24 11:01:58;;;;;;;;;;;8.20;99.90;;;;;;7404851;19;20347;-66
2022/12/24 11:04:34;;;;;;;19.67;3.35;;;8.30;99.90;;;;;;7402532;19;19978;-64
2022/12/24 11:07:20;;;;;;;22.35;5.43;;;8.40;99.90;;;;;;7402363;19;19919;-65
2022/12/24 11:09:58;;;;;;;17.67;3.63;;;8.50;99.90;;;;;;7401259;19;19986;-66
2022/12/24 11:12:31;;;;;;;24.08;3.67;;;8.40;99.90;;;;;;7403378;19;19914;-65
2022/12/24 11:15:19;;;;;;;20.35;3.58;;;8.40;99.90;;;;;;7404508;19;19925;-66
2022/12/24 11:17:55;;;;;;;17.95;3.20;;;8.50;99.90;;;;;;7408689;19;20316;-65
2022/12/24 11:20:36;;;;;;;23.17;3.08;;;8.40;99.90;;;;;;7409273;19;19906;-67
2022/12/24 11:23:08;;;;;;;19.23;3.60;;;8.50;99.90;;;;;;7408331;19;19915;-65
2022/12/24 11:25:40;;;;;;;23.02;4.53;;;8.60;99.90;;;;;;7408420;19;19943;-65
2022/12/24 11:28:14;;;;;;;15.45;3.17;;;8.50;99.90;;;;;;7408105;19;20279;-66
2022/12/24 11:30:43;;;;;;;15.30;3.47;;;8.60;99.90;;;;;;7408676;19;19980;-65
2022/12/24 11:33:22;;;;;;;23.40;4.57;;;8.60;99.90;;;;;;7407830;19;19923;-64
2022/12/24 11:35:59;;;;;;;13.55;4.28;;;8.40;99.90;;;;;;7408103;19;19914;-65
2022/12/24 11:38:33;;;;;;;16.02;3.50;;;8.60;99.90;;;;;;7406816;19;19923;-65
2022/12/24 11:41:10;;;;;;;12.68;3.05;;;8.70;99.90;;;;;;7408428;19;19974;-65
2022/12/24 11:43:46;;;;;;;12.50;2.90;;;8.70;99.90;;;;;;7408025;19;20248;-65
2022/12/24 11:46:21;;;;;;;17.00;2.92;;;8.80;99.90;;;;;;7407808;19;19942;-65
2022/12/24 11:49:06;;;;;;;9.60;2.20;;;8.80;99.90;;;;;;7407528;19;19917;-65
2022/12/24 11:51:40;;;;;;;17.33;3.08;;;8.60;99.90;;;;;;7406987;19;19923;-65
2022/12/24 11:54:20;;;;;;;19.17;3.25;;;8.60;99.90;;;;;;7407824;19;19939;-65
2022/12/24 11:56:53;;;;;;;16.17;2.58;;;8.80;99.90;;;;;;7405255;19;20336;-65
2022/12/24 11:59:30;;;;;;;21.08;3.17;;;8.70;99.90;;;;;;7406019;19;19919;-65
2022/12/24 12:02:04;;;;;;;17.67;3.30;;;8.80;99.90;;;;;;7407660;19;19927;-65
2022/12/24 12:04:38;;;;;;;15.55;3.28;;;8.60;99.90;;;;;;7407132;19;19986;-66
2022/12/24 12:07:12;;;;;;;16.38;3.28;;;8.70;99.90;;;;;;7407644;19;19938;-65
2022/12/24 12:09:51;;;;;;;14.98;2.67;;;7.60;99.90;;;;;;7407203;19;20332;-66
2022/12/24 12:12:25;;;;;;;15.93;2.50;;;8.50;99.90;;;;;;7407000;19;19911;-65
2022/12/24 12:14:58;;;;;;;15.63;3.20;;;8.60;99.90;;;;;;7406816;19;20258;-65
2022/12/24 12:17:34;;;;;;;17.20;2.78;;;8.50;99.90;;;;;;7407641;19;19936;-66
2022/12/24 12:20:08;;;;;;;12.60;2.88;;;8.50;99.90;;;;;;7404413;19;19914;-68
2022/12/24 12:22:43;;;;;;;21.35;3.95;;;8.40;99.90;;;;;;7408442;19;20313;-66
2022/12/24 12:25:23;;;;;;;18.23;4.20;;;8.50;99.90;;;;;;7406297;19;20244;-66
2022/12/24 12:27:55;;;;;;;19.77;3.53;;;8.50;99.90;;;;;;7404755;19;19926;-68
2022/12/24 12:30:26;;;;;;;18.17;4.07;;;8.40;99.90;;;;;;7403525;19;19914;-67
2022/12/24 12:33:01;;;;;;;13.70;4.07;;;8.40;99.90;;;;;;7406520;19;20340;-67
2022/12/24 12:35:34;;;;;;;19.40;3.40;;;8.40;99.90;;;;;;7406461;19;20340;-67
2022/12/24 12:38:06;;;;;;;24.95;3.63;;;8.40;99.90;;;;;;7406337;19;19970;-67
2022/12/24 12:40:56;;;;;;;14.93;3.05;;;8.40;99.90;;;;;;7406994;19;20277;-66
2022/12/24 12:43:38;;;;;;;18.77;2.40;;;8.40;99.90;;;;;;7407041;19;19918;-67
2022/12/24 12:46:22;;;;;;;17.48;3.08;;;8.40;99.90;;;;;;7404643;19;19964;-67
2022/12/24 12:49:14;;;;;;;17.33;3.17;;;8.40;99.90;;;;;;7406598;19;19954;-67
2022/12/24 12:51:51;;;;;;;16.92;2.53;;;8.40;99.90;;;;;;7406899;19;19926;-67
2022/12/24 12:54:52;;;;;;;16.60;2.80;;;8.30;99.90;;;;;;7409736;19;20220;-67
2022/12/24 12:57:45;;;;;;;18.98;3.63;;;8.30;99.90;;;;;;7404442;19;19915;-67
2022/12/24 13:00:20;;;;;;;18.85;2.42;;;8.20;99.90;;;;;;7403947;19;20007;-68
2022/12/24 13:03:21;;;;;;;19.35;3.15;;;8.30;99.90;;;;;;7405776;19;19911;-66
2022/12/24 13:06:25;;;;;;;10.82;2.35;;;8.30;99.90;;;;;;7406102;19;20350;-67
2022/12/24 13:09:17;;;;;;;17.90;3.47;;;8.30;99.90;;;;;;7406108;19;19911;-67
2022/12/24 13:12:05;;;;;;;17.20;3.70;;;8.30;99.90;;;;;;7405955;19;19918;-67
2022/12/24 13:14:53;;;;;;;15.77;2.72;;;8.30;99.90;;;;;;7405469;19;19918;-67
2022/12/24 13:17:44;;;;;;;13.35;3.10;;;8.30;99.90;;;;;;7405537;19;19986;-67
2022/12/24 13:20:23;;;;;;;16.08;2.65;;;8.30;99.90;;;;;;7401390;19;19915;-66
2022/12/24 13:22:59;;;;;;;15.35;2.60;;;8.30;99.90;;;;;;7407977;19;19919;-68
2022/12/24 13:25:38;;;;;;;14.77;3.03;;;8.40;99.90;;;;;;7405498;19;20306;-67
2022/12/24 13:28:37;;;;;;;16.63;2.65;;;8.40;99.90;;;;;;7405026;19;20066;-67
2022/12/24 13:31:32;;;;;;;17.38;3.25;;;8.50;99.90;;;;;;7405316;19;19915;-67